sensor_id;sensor_type;location;lat;lon;timestamp;temperature;humidity
9329;DHT22;4703;48.748;19.142;2022-07-06T00:00:07;19.20;99.90
9329;DHT22;4703;48.748;19.142;2022-07-06T00:02:34;19.20;99.90
9329;DHT22;4703;48.748;19.142;2022-07-06T00:05:01;19.20;99.90
9329;DHT22;4703;48.748;19.142;2022-07-06T00:07:28;19.30;99.90
9329;DHT22;4703;48.748;19.142;2022-07-06T00:09:56;19.60;99.90
9329;DHT22;4703;48.748;19.142;2022-07-06T00:12:24;19.40;99.90
9329;DHT22;4703;48.748;19.142;2022-07-06T00:14:51;19.40;99.90
9329;DHT22;4703;48.748;19.142;2022-07-06T00:17:18;19.40;99.90
9329;DHT22;4703;48.748;19.142;2022-07-06T00:19:45;19.40;99.90
9329;DHT22;4703;48.748;19.142;2022-07-06T00:22:12;19.40;99.90
9329;DHT22;4703;48.748;19.142;2022-07-06T00:24:39;19.40;99.90
9329;DHT22;4703;48.748;19.142;2022-07-06T00:27:06;19.30;99.90
9329;DHT22;4703;48.748;19.142;2022-07-06T00:29:33;19.40;99.90
9329;DHT22;4703;48.748;19.142;2022-07-06T00:32:00;19.40;99.90
9329;DHT22;4703;48.748;19.142;2022-07-06T00:34:27;19.40;99.90
9329;DHT22;4703;48.748;19.142;2022-07-06T00:36:54;19.30;99.90
9329;DHT22;4703;48.748;19.142;2022-07-06T00:39:21;19.40;99.90
9329;DHT22;4703;48.748;19.142;2022-07-06T00:41:49;19.40;99.90
9329;DHT22;4703;48.748;19.142;2022-07-06T00:44:16;19.40;99.90
9329;DHT22;4703;48.748;19.142;2022-07-06T00:46:43;18.40;99.90
9329;DHT22;4703;48.748;19.142;2022-07-06T00:49:10;19.40;99.90
9329;DHT22;4703;48.748;19.142;2022-07-06T00:51:57;19.30;99.90
9329;DHT22;4703;48.748;19.142;2022-07-06T00:54:30;19.90;99.90
9329;DHT22;4703;48.748;19.142;2022-07-06T00:56:58;19.40;99.90
9329;DHT22;4703;48.748;19.142;2022-07-06T00:59:25;19.40;99.90
9329;DHT22;4703;48.748;19.142;2022-07-06T01:01:54;19.40;99.90
9329;DHT22;4703;48.748;19.142;2022-07-06T01:04:21;19.40;99.90
9329;DHT22;4703;48.748;19.142;2022-07-06T01:06:48;19.70;99.90
9329;DHT22;4703;48.748;19.142;2022-07-06T01:09:15;19.30;99.90
9329;DHT22;4703;48.748;19.142;2022-07-06T01:11:43;19.30;99.90
9329;DHT22;4703;48.748;19.142;2022-07-06T01:14:12;20.20;99.90
9329;DHT22;4703;48.748;19.142;2022-07-06T01:16:41;19.20;99.90
9329;DHT22;4703;48.748;19.142;2022-07-06T01:19:08;19.20;99.90
9329;DHT22;4703;48.748;19.142;2022-07-06T01:21:37;19.20;99.90
9329;DHT22;4703;48.748;19.142;2022-07-06T01:24:05;19.20;99.90
9329;DHT22;4703;48.748;19.142;2022-07-06T01:26:32;19.10;99.90
9329;DHT22;4703;48.748;19.142;2022-07-06T01:28:59;19.00;99.90
9329;DHT22;4703;48.748;19.142;2022-07-06T01:31:26;19.00;99.90
9329;DHT22;4703;48.748;19.142;2022-07-06T01:33:55;19.00;99.90
9329;DHT22;4703;48.748;19.142;2022-07-06T01:36:23;19.00;99.90
9329;DHT22;4703;48.748;19.142;2022-07-06T01:38:52;19.00;99.90
9329;DHT22;4703;48.748;19.142;2022-07-06T01:41:21;19.00;99.90
9329;DHT22;4703;48.748;19.142;2022-07-06T01:43:48;19.00;99.90
9329;DHT22;4703;48.748;19.142;2022-07-06T01:46:15;19.10;99.90
9329;DHT22;4703;48.748;19.142;2022-07-06T01:48:44;19.10;99.90
9329;DHT22;4703;48.748;19.142;2022-07-06T01:51:11;19.20;99.90
9329;DHT22;4703;48.748;19.142;2022-07-06T01:53:41;19.20;99.90
9329;DHT22;4703;48.748;19.142;2022-07-06T01:56:08;19.30;99.90
9329;DHT22;4703;48.748;19.142;2022-07-06T01:58:36;19.30;99.90
9329;DHT22;4703;48.748;19.142;2022-07-06T02:01:10;19.50;99.90
9329;DHT22;4703;48.748;19.142;2022-07-06T02:03:42;19.40;99.90
9329;DHT22;4703;48.748;19.142;2022-07-06T02:06:10;19.50;99.90
9329;DHT22;4703;48.748;19.142;2022-07-06T02:08:39;19.60;99.90
9329;DHT22;4703;48.748;19.142;2022-07-06T02:11:08;19.60;99.90
9329;DHT22;4703;48.748;19.142;2022-07-06T02:13:36;19.60;99.90
9329;DHT22;4703;48.748;19.142;2022-07-06T02:16:03;19.60;99.90
9329;DHT22;4703;48.748;19.142;2022-07-06T02:18:31;19.70;99.90
9329;DHT22;4703;48.748;19.142;2022-07-06T02:20:58;19.60;99.90
9329;DHT22;4703;48.748;19.142;2022-07-06T02:23:25;19.70;99.90
9329;DHT22;4703;48.748;19.142;2022-07-06T02:25:52;19.70;99.90
9329;DHT22;4703;48.748;19.142;2022-07-06T02:28:19;19.70;99.90
9329;DHT22;4703;48.748;19.142;2022-07-06T02:30:47;19.70;99.90
9329;DHT22;4703;48.748;19.142;2022-07-06T02:33:14;19.70;99.90
9329;DHT22;4703;48.748;19.142;2022-07-06T02:35:41;19.70;99.90
9329;DHT22;4703;48.748;19.142;2022-07-06T02:38:11;19.70;99.90
9329;DHT22;4703;48.748;19.142;2022-07-06T02:40:38;19.60;99.90
9329;DHT22;4703;48.748;19.142;2022-07-06T02:43:05;19.70;99.90
9329;DHT22;4703;48.748;19.142;2022-07-06T02:45:33;19.70;99.90
9329;DHT22;4703;48.748;19.142;2022-07-06T02:48:00;19.70;99.90
9329;DHT22;4703;48.748;19.142;2022-07-06T02:50:27;19.70;99.90
9329;DHT22;4703;48.748;19.142;2022-07-06T02:52:54;19.70;99.90
9329;DHT22;4703;48.748;19.142;2022-07-06T02:55:21;20.20;99.90
9329;DHT22;4703;48.748;19.142;2022-07-06T02:57:48;19.70;99.90
9329;DHT22;4703;48.748;19.142;2022-07-06T03:00:16;19.70;99.90
9329;DHT22;4703;48.748;19.142;2022-07-06T03:02:43;19.70;99.90
9329;DHT22;4703;48.748;19.142;2022-07-06T03:05:10;19.70;99.90
9329;DHT22;4703;48.748;19.142;2022-07-06T03:07:37;19.70;99.90
9329;DHT22;4703;48.748;19.142;2022-07-06T03:10:05;19.70;99.90
9329;DHT22;4703;48.748;19.142;2022-07-06T03:12:32;19.70;99.90
9329;DHT22;4703;48.748;19.142;2022-07-06T03:14:59;19.70;99.90
9329;DHT22;4703;48.748;19.142;2022-07-06T03:17:26;19.60;99.90
9329;DHT22;4703;48.748;19.142;2022-07-06T03:19:53;19.60;99.90
9329;DHT22;4703;48.748;19.142;2022-07-06T03:22:20;19.70;99.90
9329;DHT22;4703;48.748;19.142;2022-07-06T03:24:47;19.60;99.90
9329;DHT22;4703;48.748;19.142;2022-07-06T03:27:14;20.30;99.90
9329;DHT22;4703;48.748;19.142;2022-07-06T03:29:41;19.60;99.90
9329;DHT22;4703;48.748;19.142;2022-07-06T03:32:08;19.60;99.90
9329;DHT22;4703;48.748;19.142;2022-07-06T03:34:35;19.60;99.90
9329;DHT22;4703;48.748;19.142;2022-07-06T03:37:02;19.60;99.90
9329;DHT22;4703;48.748;19.142;2022-07-06T03:39:30;19.70;99.90
9329;DHT22;4703;48.748;19.142;2022-07-06T03:41:57;19.70;99.90
9329;DHT22;4703;48.748;19.142;2022-07-06T03:44:23;19.70;99.90
9329;DHT22;4703;48.748;19.142;2022-07-06T03:46:50;19.70;99.90
9329;DHT22;4703;48.748;19.142;2022-07-06T03:49:19;19.70;99.90
9329;DHT22;4703;48.748;19.142;2022-07-06T03:51:46;19.70;99.90
9329;DHT22;4703;48.748;19.142;2022-07-06T03:54:13;19.80;99.90
9329;DHT22;4703;48.748;19.142;2022-07-06T03:56:40;20.00;99.90
9329;DHT22;4703;48.748;19.142;2022-07-06T03:59:07;19.70;99.90
9329;DHT22;4703;48.748;19.142;2022-07-06T04:01:34;19.70;99.90
9329;DHT22;4703;48.748;19.142;2022-07-06T04:04:01;19.70;99.90
9329;DHT22;4703;48.748;19.142;2022-07-06T04:06:28;19.70;99.90
9329;DHT22;4703;48.748;19.142;2022-07-06T04:08:55;19.70;99.90
9329;DHT22;4703;48.748;19.142;2022-07-06T04:11:22;19.70;99.90
9329;DHT22;4703;48.748;19.142;2022-07-06T04:13:49;19.70;99.90
9329;DHT22;4703;48.748;19.142;2022-07-06T04:16:16;19.70;99.90
9329;DHT22;4703;48.748;19.142;2022-07-06T04:18:43;19.70;99.90
9329;DHT22;4703;48.748;19.142;2022-07-06T04:21:10;19.80;99.90
9329;DHT22;4703;48.748;19.142;2022-07-06T04:23:37;20.20;99.90
9329;DHT22;4703;48.748;19.142;2022-07-06T04:26:04;20.20;99.90
9329;DHT22;4703;48.748;19.142;2022-07-06T04:28:31;19.80;99.90
9329;DHT22;4703;48.748;19.142;2022-07-06T04:30:59;19.70;99.90
9329;DHT22;4703;48.748;19.142;2022-07-06T04:33:26;19.70;99.90
9329;DHT22;4703;48.748;19.142;2022-07-06T04:35:53;19.80;99.90
9329;DHT22;4703;48.748;19.142;2022-07-06T04:38:20;19.70;99.90
9329;DHT22;4703;48.748;19.142;2022-07-06T04:40:47;17.70;99.90
9329;DHT22;4703;48.748;19.142;2022-07-06T04:43:14;19.70;99.90
9329;DHT22;4703;48.748;19.142;2022-07-06T04:45:41;19.70;99.90
9329;DHT22;4703;48.748;19.142;2022-07-06T04:48:08;19.80;99.90
9329;DHT22;4703;48.748;19.142;2022-07-06T04:50:36;19.80;99.90
9329;DHT22;4703;48.748;19.142;2022-07-06T04:53:06;19.80;99.90
9329;DHT22;4703;48.748;19.142;2022-07-06T04:55:36;19.80;99.90
9329;DHT22;4703;48.748;19.142;2022-07-06T04:58:03;19.80;99.90
9329;DHT22;4703;48.748;19.142;2022-07-06T05:00:30;19.80;99.90
9329;DHT22;4703;48.748;19.142;2022-07-06T05:02:57;19.80;99.90
9329;DHT22;4703;48.748;19.142;2022-07-06T05:05:24;19.80;99.90
9329;DHT22;4703;48.748;19.142;2022-07-06T05:07:52;19.90;99.90
9329;DHT22;4703;48.748;19.142;2022-07-06T05:10:19;19.90;99.90
9329;DHT22;4703;48.748;19.142;2022-07-06T05:12:46;19.90;99.90
9329;DHT22;4703;48.748;19.142;2022-07-06T05:15:13;19.90;99.90
9329;DHT22;4703;48.748;19.142;2022-07-06T05:17:40;19.90;99.90
9329;DHT22;4703;48.748;19.142;2022-07-06T05:20:07;19.90;99.90
9329;DHT22;4703;48.748;19.142;2022-07-06T05:22:35;20.00;99.90
9329;DHT22;4703;48.748;19.142;2022-07-06T05:25:11;20.00;99.90
9329;DHT22;4703;48.748;19.142;2022-07-06T05:27:38;20.00;99.90
9329;DHT22;4703;48.748;19.142;2022-07-06T05:30:05;20.10;99.50
9329;DHT22;4703;48.748;19.142;2022-07-06T05:32:33;20.10;99.50
9329;DHT22;4703;48.748;19.142;2022-07-06T05:35:00;20.10;98.50
9329;DHT22;4703;48.748;19.142;2022-07-06T05:37:47;20.20;97.90
9329;DHT22;4703;48.748;19.142;2022-07-06T05:40:14;20.40;98.00
9329;DHT22;4703;48.748;19.142;2022-07-06T05:42:41;20.20;97.80
9329;DHT22;4703;48.748;19.142;2022-07-06T05:45:08;20.30;98.00
9329;DHT22;4703;48.748;19.142;2022-07-06T05:47:35;20.30;97.60
9329;DHT22;4703;48.748;19.142;2022-07-06T05:50:21;20.30;98.00
9329;DHT22;4703;48.748;19.142;2022-07-06T05:52:57;20.30;97.50
9329;DHT22;4703;48.748;19.142;2022-07-06T05:55:41;20.50;97.00
9329;DHT22;4703;48.748;19.142;2022-07-06T05:58:08;20.40;97.40
9329;DHT22;4703;48.748;19.142;2022-07-06T06:00:35;20.40;97.70
9329;DHT22;4703;48.748;19.142;2022-07-06T06:03:02;20.40;97.90
9329;DHT22;4703;48.748;19.142;2022-07-06T06:05:29;20.40;97.00
9329;DHT22;4703;48.748;19.142;2022-07-06T06:07:56;20.40;96.90
9329;DHT22;4703;48.748;19.142;2022-07-06T06:10:23;20.40;96.90
9329;DHT22;4703;48.748;19.142;2022-07-06T06:12:51;20.90;97.50
9329;DHT22;4703;48.748;19.142;2022-07-06T06:15:18;20.50;97.80
9329;DHT22;4703;48.748;19.142;2022-07-06T06:17:45;20.40;98.30
9329;DHT22;4703;48.748;19.142;2022-07-06T06:20:14;20.50;99.10
9329;DHT22;4703;48.748;19.142;2022-07-06T06:25:19;20.50;97.50
9329;DHT22;4703;48.748;19.142;2022-07-06T06:27:48;20.50;97.90
9329;DHT22;4703;48.748;19.142;2022-07-06T06:30:15;22.90;97.20
9329;DHT22;4703;48.748;19.142;2022-07-06T06:32:42;20.70;95.00
9329;DHT22;4703;48.748;19.142;2022-07-06T06:35:09;20.70;95.30
9329;DHT22;4703;48.748;19.142;2022-07-06T06:37:36;20.70;94.60
9329;DHT22;4703;48.748;19.142;2022-07-06T06:40:05;22.50;95.90
9329;DHT22;4703;48.748;19.142;2022-07-06T06:42:35;20.80;94.00
9329;DHT22;4703;48.748;19.142;2022-07-06T06:45:05;20.80;95.10
9329;DHT22;4703;48.748;19.142;2022-07-06T06:47:32;20.90;95.20
9329;DHT22;4703;48.748;19.142;2022-07-06T06:49:59;20.90;94.70
9329;DHT22;4703;48.748;19.142;2022-07-06T06:52:26;22.40;95.90
9329;DHT22;4703;48.748;19.142;2022-07-06T06:55:08;21.00;94.60
9329;DHT22;4703;48.748;19.142;2022-07-06T06:57:36;21.10;94.30
9329;DHT22;4703;48.748;19.142;2022-07-06T07:00:04;21.10;94.60
9329;DHT22;4703;48.748;19.142;2022-07-06T07:02:31;21.10;94.40
9329;DHT22;4703;48.748;19.142;2022-07-06T07:04:58;21.20;93.20
9329;DHT22;4703;48.748;19.142;2022-07-06T07:07:26;21.20;93.40
9329;DHT22;4703;48.748;19.142;2022-07-06T07:09:53;21.20;93.50
9329;DHT22;4703;48.748;19.142;2022-07-06T07:12:20;21.30;94.30
9329;DHT22;4703;48.748;19.142;2022-07-06T07:14:47;21.30;94.80
9329;DHT22;4703;48.748;19.142;2022-07-06T07:17:14;21.30;93.10
9329;DHT22;4703;48.748;19.142;2022-07-06T07:19:41;21.30;94.30
9329;DHT22;4703;48.748;19.142;2022-07-06T07:22:08;21.40;93.90
9329;DHT22;4703;48.748;19.142;2022-07-06T07:24:35;21.40;92.50
9329;DHT22;4703;48.748;19.142;2022-07-06T07:27:02;21.40;94.00
9329;DHT22;4703;48.748;19.142;2022-07-06T07:29:30;21.40;93.40
9329;DHT22;4703;48.748;19.142;2022-07-06T07:31:57;21.50;94.70
9329;DHT22;4703;48.748;19.142;2022-07-06T07:34:24;21.50;93.50
9329;DHT22;4703;48.748;19.142;2022-07-06T07:36:51;21.50;92.60
9329;DHT22;4703;48.748;19.142;2022-07-06T07:39:18;21.60;93.20
9329;DHT22;4703;48.748;19.142;2022-07-06T07:41:45;21.60;92.50
9329;DHT22;4703;48.748;19.142;2022-07-06T07:44:12;21.60;92.50
9329;DHT22;4703;48.748;19.142;2022-07-06T07:46:39;21.60;92.80
9329;DHT22;4703;48.748;19.142;2022-07-06T07:49:06;21.70;94.10
9329;DHT22;4703;48.748;19.142;2022-07-06T07:51:34;21.70;94.20
9329;DHT22;4703;48.748;19.142;2022-07-06T07:54:01;21.80;92.10
9329;DHT22;4703;48.748;19.142;2022-07-06T07:56:28;21.80;92.10
9329;DHT22;4703;48.748;19.142;2022-07-06T07:58:55;21.90;92.40
9329;DHT22;4703;48.748;19.142;2022-07-06T08:01:22;21.90;92.70
9329;DHT22;4703;48.748;19.142;2022-07-06T08:03:49;22.00;93.00
9329;DHT22;4703;48.748;19.142;2022-07-06T08:06:16;22.10;90.80
9329;DHT22;4703;48.748;19.142;2022-07-06T08:08:43;22.10;91.10
9329;DHT22;4703;48.748;19.142;2022-07-06T08:11:10;22.20;91.60
9329;DHT22;4703;48.748;19.142;2022-07-06T08:13:46;22.20;91.40
9329;DHT22;4703;48.748;19.142;2022-07-06T08:16:13;22.30;92.50
9329;DHT22;4703;48.748;19.142;2022-07-06T08:18:40;22.20;91.90
9329;DHT22;4703;48.748;19.142;2022-07-06T08:21:08;22.30;91.80
9329;DHT22;4703;48.748;19.142;2022-07-06T08:23:53;22.30;93.00
9329;DHT22;4703;48.748;19.142;2022-07-06T08:26:21;22.30;91.20
9329;DHT22;4703;48.748;19.142;2022-07-06T08:28:49;22.40;90.80
9329;DHT22;4703;48.748;19.142;2022-07-06T08:31:17;22.40;89.10
9329;DHT22;4703;48.748;19.142;2022-07-06T08:34:04;22.50;91.00
9329;DHT22;4703;48.748;19.142;2022-07-06T08:36:31;22.60;91.10
9329;DHT22;4703;48.748;19.142;2022-07-06T08:38:58;22.70;90.40
9329;DHT22;4703;48.748;19.142;2022-07-06T08:41:28;22.80;91.50
9329;DHT22;4703;48.748;19.142;2022-07-06T08:43:56;22.70;90.70
9329;DHT22;4703;48.748;19.142;2022-07-06T08:46:23;22.90;91.20
9329;DHT22;4703;48.748;19.142;2022-07-06T08:48:50;22.90;90.80
9329;DHT22;4703;48.748;19.142;2022-07-06T08:51:18;23.00;90.30
9329;DHT22;4703;48.748;19.142;2022-07-06T08:53:54;23.00;89.70
9329;DHT22;4703;48.748;19.142;2022-07-06T08:56:22;23.00;90.40
9329;DHT22;4703;48.748;19.142;2022-07-06T08:58:50;23.10;90.00
9329;DHT22;4703;48.748;19.142;2022-07-06T09:01:17;23.20;90.20
9329;DHT22;4703;48.748;19.142;2022-07-06T09:03:45;23.30;90.60
9329;DHT22;4703;48.748;19.142;2022-07-06T09:06:26;23.20;89.70
9329;DHT22;4703;48.748;19.142;2022-07-06T09:08:55;23.10;85.40
9329;DHT22;4703;48.748;19.142;2022-07-06T09:11:24;23.10;83.20
9329;DHT22;4703;48.748;19.142;2022-07-06T09:13:54;23.00;86.40
9329;DHT22;4703;48.748;19.142;2022-07-06T09:16:29;23.00;90.10
9329;DHT22;4703;48.748;19.142;2022-07-06T09:19:07;23.00;90.70
9329;DHT22;4703;48.748;19.142;2022-07-06T09:21:34;22.90;91.00
9329;DHT22;4703;48.748;19.142;2022-07-06T09:24:09;22.90;89.80
9329;DHT22;4703;48.748;19.142;2022-07-06T09:26:39;23.00;91.10
9329;DHT22;4703;48.748;19.142;2022-07-06T09:29:07;23.00;90.90
9329;DHT22;4703;48.748;19.142;2022-07-06T09:31:35;23.10;91.10
9329;DHT22;4703;48.748;19.142;2022-07-06T09:34:07;23.20;91.60
9329;DHT22;4703;48.748;19.142;2022-07-06T09:39:25;23.10;91.70
9329;DHT22;4703;48.748;19.142;2022-07-06T09:41:58;23.10;90.50
9329;DHT22;4703;48.748;19.142;2022-07-06T09:44:31;23.10;85.80
9329;DHT22;4703;48.748;19.142;2022-07-06T09:47:08;23.10;86.80
9329;DHT22;4703;48.748;19.142;2022-07-06T09:49:37;23.10;86.80
9329;DHT22;4703;48.748;19.142;2022-07-06T09:52:08;23.10;88.20
9329;DHT22;4703;48.748;19.142;2022-07-06T09:54:37;23.20;90.30
9329;DHT22;4703;48.748;19.142;2022-07-06T09:57:06;23.30;90.90
9329;DHT22;4703;48.748;19.142;2022-07-06T09:59:35;23.40;90.70
9329;DHT22;4703;48.748;19.142;2022-07-06T10:02:05;23.60;90.60
9329;DHT22;4703;48.748;19.142;2022-07-06T10:04:33;23.80;89.80
9329;DHT22;4703;48.748;19.142;2022-07-06T10:07:01;24.00;91.20
9329;DHT22;4703;48.748;19.142;2022-07-06T10:09:29;24.10;90.80
9329;DHT22;4703;48.748;19.142;2022-07-06T10:11:59;24.20;90.90
9329;DHT22;4703;48.748;19.142;2022-07-06T10:14:30;24.30;88.20
9329;DHT22;4703;48.748;19.142;2022-07-06T10:17:00;24.20;86.30
9329;DHT22;4703;48.748;19.142;2022-07-06T10:19:30;24.10;83.80
9329;DHT22;4703;48.748;19.142;2022-07-06T10:22:00;24.00;88.10
9329;DHT22;4703;48.748;19.142;2022-07-06T10:24:28;23.90;86.50
9329;DHT22;4703;48.748;19.142;2022-07-06T10:26:57;23.70;85.80
9329;DHT22;4703;48.748;19.142;2022-07-06T10:29:24;23.60;85.80
9329;DHT22;4703;48.748;19.142;2022-07-06T10:31:52;23.50;84.40
9329;DHT22;4703;48.748;19.142;2022-07-06T10:34:20;23.40;85.90
9329;DHT22;4703;48.748;19.142;2022-07-06T10:36:52;23.40;86.60
9329;DHT22;4703;48.748;19.142;2022-07-06T10:42:50;23.30;87.80
9329;DHT22;4703;48.748;19.142;2022-07-06T10:50:47;23.60;89.80
9329;DHT22;4703;48.748;19.142;2022-07-06T10:53:17;23.80;90.20
9329;DHT22;4703;48.748;19.142;2022-07-06T10:55:56;23.90;89.70
9329;DHT22;4703;48.748;19.142;2022-07-06T11:01:19;24.30;89.60
9329;DHT22;4703;48.748;19.142;2022-07-06T11:04:10;24.60;89.60
9329;DHT22;4703;48.748;19.142;2022-07-06T11:06:38;24.90;89.20
9329;DHT22;4703;48.748;19.142;2022-07-06T11:09:10;25.20;86.50
9329;DHT22;4703;48.748;19.142;2022-07-06T11:11:38;25.40;87.70
9329;DHT22;4703;48.748;19.142;2022-07-06T11:14:15;25.40;86.20
9329;DHT22;4703;48.748;19.142;2022-07-06T11:19:23;25.30;81.00
9329;DHT22;4703;48.748;19.142;2022-07-06T11:21:57;25.10;80.20
9329;DHT22;4703;48.748;19.142;2022-07-06T11:24:37;24.90;82.00
9329;DHT22;4703;48.748;19.142;2022-07-06T11:27:06;24.70;82.30
9329;DHT22;4703;48.748;19.142;2022-07-06T11:29:34;24.50;85.30
9329;DHT22;4703;48.748;19.142;2022-07-06T11:32:04;24.30;83.60
9329;DHT22;4703;48.748;19.142;2022-07-06T11:34:34;24.20;86.90
9329;DHT22;4703;48.748;19.142;2022-07-06T11:37:08;24.10;84.70
9329;DHT22;4703;48.748;19.142;2022-07-06T11:39:41;24.10;86.00
9329;DHT22;4703;48.748;19.142;2022-07-06T11:42:10;24.10;85.00
9329;DHT22;4703;48.748;19.142;2022-07-06T11:44:39;24.20;85.50
9329;DHT22;4703;48.748;19.142;2022-07-06T11:47:08;24.30;86.40
9329;DHT22;4703;48.748;19.142;2022-07-06T11:49:37;24.40;85.00
9329;DHT22;4703;48.748;19.142;2022-07-06T11:52:07;24.70;85.20
9329;DHT22;4703;48.748;19.142;2022-07-06T11:54:35;25.00;86.40
9329;DHT22;4703;48.748;19.142;2022-07-06T11:57:02;25.50;82.90
9329;DHT22;4703;48.748;19.142;2022-07-06T11:59:34;25.90;84.50
9329;DHT22;4703;48.748;19.142;2022-07-06T12:02:16;26.30;83.70
9329;DHT22;4703;48.748;19.142;2022-07-06T12:04:45;26.60;80.70
9329;DHT22;4703;48.748;19.142;2022-07-06T12:07:15;26.10;80.00
9329;DHT22;4703;48.748;19.142;2022-07-06T12:09:45;27.60;74.90
9329;DHT22;4703;48.748;19.142;2022-07-06T12:12:13;28.00;76.20
9329;DHT22;4703;48.748;19.142;2022-07-06T12:14:43;28.40;68.60
9329;DHT22;4703;48.748;19.142;2022-07-06T12:17:14;28.50;69.40
9329;DHT22;4703;48.748;19.142;2022-07-06T12:19:42;28.30;58.60
9329;DHT22;4703;48.748;19.142;2022-07-06T12:22:10;28.20;64.60
9329;DHT22;4703;48.748;19.142;2022-07-06T12:24:42;28.00;59.60
9329;DHT22;4703;48.748;19.142;2022-07-06T12:27:17;28.10;62.30
9329;DHT22;4703;48.748;19.142;2022-07-06T12:29:46;28.30;65.10
9329;DHT22;4703;48.748;19.142;2022-07-06T12:32:16;28.60;65.10
9329;DHT22;4703;48.748;19.142;2022-07-06T12:34:44;28.90;61.30
9329;DHT22;4703;48.748;19.142;2022-07-06T12:37:12;29.20;60.40
9329;DHT22;4703;48.748;19.142;2022-07-06T12:39:44;29.30;55.90
9329;DHT22;4703;48.748;19.142;2022-07-06T12:42:17;29.20;56.40
9329;DHT22;4703;48.748;19.142;2022-07-06T12:44:47;29.10;57.90
9329;DHT22;4703;48.748;19.142;2022-07-06T12:47:28;29.10;56.90
9329;DHT22;4703;48.748;19.142;2022-07-06T12:50:09;29.20;56.00
9329;DHT22;4703;48.748;19.142;2022-07-06T12:52:38;29.40;56.30
9329;DHT22;4703;48.748;19.142;2022-07-06T12:55:06;29.50;52.90
9329;DHT22;4703;48.748;19.142;2022-07-06T12:57:47;29.70;54.00
9329;DHT22;4703;48.748;19.142;2022-07-06T13:00:16;29.90;53.30
9329;DHT22;4703;48.748;19.142;2022-07-06T13:02:45;30.00;51.00
9329;DHT22;4703;48.748;19.142;2022-07-06T13:05:34;30.10;51.70
9329;DHT22;4703;48.748;19.142;2022-07-06T13:08:02;30.20;49.20
9329;DHT22;4703;48.748;19.142;2022-07-06T13:10:30;30.30;47.90
9329;DHT22;4703;48.748;19.142;2022-07-06T13:13:01;30.30;53.00
9329;DHT22;4703;48.748;19.142;2022-07-06T13:15:28;30.20;48.40
9329;DHT22;4703;48.748;19.142;2022-07-06T13:17:55;30.10;50.90
9329;DHT22;4703;48.748;19.142;2022-07-06T13:20:23;30.10;50.20
9329;DHT22;4703;48.748;19.142;2022-07-06T13:22:49;30.10;51.10
9329;DHT22;4703;48.748;19.142;2022-07-06T13:25:17;30.00;52.20
9329;DHT22;4703;48.748;19.142;2022-07-06T13:27:44;30.00;53.40
9329;DHT22;4703;48.748;19.142;2022-07-06T13:30:11;30.00;53.90
9329;DHT22;4703;48.748;19.142;2022-07-06T13:32:39;30.00;51.60
9329;DHT22;4703;48.748;19.142;2022-07-06T13:35:06;30.10;52.50
9329;DHT22;4703;48.748;19.142;2022-07-06T13:37:33;30.20;52.30
9329;DHT22;4703;48.748;19.142;2022-07-06T13:40:00;30.40;50.10
9329;DHT22;4703;48.748;19.142;2022-07-06T13:42:28;30.50;53.00
9329;DHT22;4703;48.748;19.142;2022-07-06T13:44:55;30.80;51.50
9329;DHT22;4703;48.748;19.142;2022-07-06T13:47:22;31.10;49.80
9329;DHT22;4703;48.748;19.142;2022-07-06T13:49:49;31.30;48.30
9329;DHT22;4703;48.748;19.142;2022-07-06T13:52:16;31.10;46.40
9329;DHT22;4703;48.748;19.142;2022-07-06T13:54:43;31.00;46.10
9329;DHT22;4703;48.748;19.142;2022-07-06T13:57:10;30.70;43.30
9329;DHT22;4703;48.748;19.142;2022-07-06T13:59:37;30.70;47.90
9329;DHT22;4703;48.748;19.142;2022-07-06T14:02:04;30.60;46.80
9329;DHT22;4703;48.748;19.142;2022-07-06T14:04:34;30.80;50.80
9329;DHT22;4703;48.748;19.142;2022-07-06T14:07:01;31.20;45.20
9329;DHT22;4703;48.748;19.142;2022-07-06T14:09:28;31.40;45.80
9329;DHT22;4703;48.748;19.142;2022-07-06T14:11:56;31.70;47.00
9329;DHT22;4703;48.748;19.142;2022-07-06T14:14:23;32.10;45.90
9329;DHT22;4703;48.748;19.142;2022-07-06T14:16:50;32.40;42.90
9329;DHT22;4703;48.748;19.142;2022-07-06T14:19:18;32.70;45.30
9329;DHT22;4703;48.748;19.142;2022-07-06T14:21:48;33.00;40.50
9329;DHT22;4703;48.748;19.142;2022-07-06T14:24:15;32.80;39.80
9329;DHT22;4703;48.748;19.142;2022-07-06T14:26:43;32.70;42.60
9329;DHT22;4703;48.748;19.142;2022-07-06T14:29:10;33.20;43.40
9329;DHT22;4703;48.748;19.142;2022-07-06T14:31:37;32.70;43.10
9329;DHT22;4703;48.748;19.142;2022-07-06T14:34:04;32.70;44.80
9329;DHT22;4703;48.748;19.142;2022-07-06T14:36:31;32.60;44.60
9329;DHT22;4703;48.748;19.142;2022-07-06T14:39:00;32.60;45.40
9329;DHT22;4703;48.748;19.142;2022-07-06T14:41:27;32.70;43.30
9329;DHT22;4703;48.748;19.142;2022-07-06T14:43:54;32.90;42.50
9329;DHT22;4703;48.748;19.142;2022-07-06T14:46:21;33.20;41.10
9329;DHT22;4703;48.748;19.142;2022-07-06T14:48:48;33.40;40.80
9329;DHT22;4703;48.748;19.142;2022-07-06T14:51:15;33.60;39.70
9329;DHT22;4703;48.748;19.142;2022-07-06T14:53:42;33.60;39.80
9329;DHT22;4703;48.748;19.142;2022-07-06T14:56:09;33.60;40.00
9329;DHT22;4703;48.748;19.142;2022-07-06T14:58:39;33.50;38.70
9329;DHT22;4703;48.748;19.142;2022-07-06T15:01:18;33.60;40.50
9329;DHT22;4703;48.748;19.142;2022-07-06T15:03:48;33.80;39.20
9329;DHT22;4703;48.748;19.142;2022-07-06T15:06:16;34.00;39.80
9329;DHT22;4703;48.748;19.142;2022-07-06T15:09:03;34.20;39.70
9329;DHT22;4703;48.748;19.142;2022-07-06T15:11:33;34.30;38.20
9329;DHT22;4703;48.748;19.142;2022-07-06T15:14:00;34.50;39.40
9329;DHT22;4703;48.748;19.142;2022-07-06T15:16:28;34.60;38.80
9329;DHT22;4703;48.748;19.142;2022-07-06T15:18:55;34.80;40.30
9329;DHT22;4703;48.748;19.142;2022-07-06T15:21:22;34.90;40.20
9329;DHT22;4703;48.748;19.142;2022-07-06T15:23:50;35.10;39.20
9329;DHT22;4703;48.748;19.142;2022-07-06T15:26:17;35.20;39.80
9329;DHT22;4703;48.748;19.142;2022-07-06T15:28:44;35.30;39.80
9329;DHT22;4703;48.748;19.142;2022-07-06T15:31:11;35.40;40.30
9329;DHT22;4703;48.748;19.142;2022-07-06T15:33:44;35.40;38.30
9329;DHT22;4703;48.748;19.142;2022-07-06T15:36:14;35.30;36.50
9329;DHT22;4703;48.748;19.142;2022-07-06T15:38:41;34.70;35.70
9329;DHT22;4703;48.748;19.142;2022-07-06T15:41:08;34.30;35.80
9329;DHT22;4703;48.748;19.142;2022-07-06T15:43:35;34.00;36.10
9329;DHT22;4703;48.748;19.142;2022-07-06T15:46:03;33.80;38.40
9329;DHT22;4703;48.748;19.142;2022-07-06T15:48:34;33.80;38.70
9329;DHT22;4703;48.748;19.142;2022-07-06T15:51:01;33.70;39.70
9329;DHT22;4703;48.748;19.142;2022-07-06T15:53:28;33.70;37.40
9329;DHT22;4703;48.748;19.142;2022-07-06T15:55:57;33.90;39.10
9329;DHT22;4703;48.748;19.142;2022-07-06T15:58:26;34.00;40.50
9329;DHT22;4703;48.748;19.142;2022-07-06T16:00:53;34.10;37.70
9329;DHT22;4703;48.748;19.142;2022-07-06T16:03:20;34.10;38.40
9329;DHT22;4703;48.748;19.142;2022-07-06T16:05:49;34.30;38.50
9329;DHT22;4703;48.748;19.142;2022-07-06T16:08:38;34.40;38.30
9329;DHT22;4703;48.748;19.142;2022-07-06T16:11:12;34.60;39.30
9329;DHT22;4703;48.748;19.142;2022-07-06T16:13:40;34.60;38.30